Observations for EDINBURGH AIRPORT, United Kingdom (EGPH)

EGPH 280450Z 06011KT 9999 FEW008 OVC043 12/11 Q1005 
EGPH 280420Z 06009KT 9999 FEW014 SCT023 OVC042 12/10 Q1005  
EGPH 280350Z 06008KT 9999 FEW010 SCT022 OVC034 12/11 Q1005  
EGPH 280320Z 05008KT 9999 SCT016 OVC033 12/11 Q1005 
EGPH 280250Z 06008KT 9999 OVC014 12/11 Q1005
EGPH 280220Z 06006KT 9999 FEW016 SCT024 OVC033 12/11 Q1006  
EGPH 280150Z 06007KT 9999 OVC032 11/10 Q1006
EGPH 280120Z 06006KT 9999 BKN015 OVC032 11/10 Q1006 
EGPH 280050Z 06007KT 9999 BKN014 11/10 Q1007
EGPH 280020Z 06006KT 9999 OVC011 11/10 Q1007
EGPH 272350Z AUTO 05006KT 9999 OVC011 11/10 Q1006   
EGPH 272320Z 06006KT 9999 OVC010 12/11 Q1006
EGPH 272250Z 06006KT 9999 -RA OVC011 12/11 Q1006
EGPH 272220Z AUTO 05005KT 9999 -RA OVC010 12/11 Q1006   
EGPH 272150Z 07004KT 040V100 9999 -RA OVC011 12/11 Q1006
EGPH 272120Z 07005KT 9999 -RA OVC012 12/11 Q1006
EGPH 272050Z 08007KT 9999 -RA BKN013 12/11 Q1006
EGPH 272020Z 08008KT 9999 7000N -RA BKN013 12/11 Q1006  
EGPH 271950Z 09008KT 9999 6000W VCSH BKN015 12/10 Q1006 
EGPH 271920Z 09009KT 9999 7000W VCSH BKN015 12/11 Q1006 
EGPH 271850Z 08008KT 9999 -SHRA BKN017 13/10 Q1006  
EGPH 271820Z 08008KT 9999 BKN017 13/10 Q1006
EGPH 271750Z 08007KT 9999 BKN016 13/11 Q1006
EGPH 271720Z 09006KT 9999 BKN016 14/11 Q1006
EGPH 271650Z 09008KT 060V120 9999 BKN017 14/11 Q1006
EGPH 271620Z 10009KT 9999 VCSH BKN019 14/11 Q1006   
EGPH 271550Z 09008KT 9999 BKN019 14/11 Q1007
EGPH 271520Z 10009KT 9999 BKN018 14/11 Q1007
EGPH 271450Z 11010KT 060V150 9999 BKN017 14/11 Q1007
EGPH 271420Z 09010KT 9999 BKN017 14/11 Q1007
EGPH 271350Z 09010KT 9999 VCSH BKN015 13/11 Q1007   
EGPH 271320Z 09010KT 9999 BKN015 13/11 Q1007
EGPH 271250Z 09011KT 9999 BKN018 13/11 Q1007
EGPH 271220Z 07009KT 9999 -RA SCT010 BKN020 13/12 Q1008 
EGPH 271150Z 07008KT 9999 -RA SCT015 BKN023 12/11 Q1008 
EGPH 271120Z 08009KT 9999 -RA SCT015 BKN022 12/11 Q1008 
EGPH 271050Z AUTO 08009KT 9999 -RA BKN013/// //////TCU 12/11 Q1008  
EGPH 271020Z 06008KT 030V090 9999 -RA FEW013 BKN020 11/11 Q1009 
EGPH 270950Z 07007KT 040V110 9999 -RA SCT013 BKN020 11/10 Q1009 
EGPH 270920Z 06007KT 9999 -RA SCT006 BKN015 11/11 Q1009 
EGPH 270850Z 07009KT 9999 -RA FEW008 SCT016 BKN032 11/10 Q1009  
EGPH 270820Z 08010KT 050V110 9999 -RA FEW011 BKN036 11/10 Q1009 
EGPH 270750Z 07009KT 9999 -RA FEW012 BKN036 10/10 Q1009 
EGPH 270720Z 08011KT 9999 -RA FEW012 BKN037 10/09 Q1009 
EGPH 270650Z 09010KT 9999 -RA FEW012 BKN030 BKN040 10/09 Q1009  
EGPH 270620Z 08009KT 060V120 9999 -RA FEW011 BKN020 10/09 Q1010 
EGPH 270550Z 08007KT 9999 -RA FEW011 BKN020 10/09 Q1010 
EGPH 270520Z 06007KT 030V090 9999 -RA SCT013TCU OVC043 10/09 Q1010  
EGPH 270450Z 05008KT 9999 -RA SCT011TCU BKN032 10/09 Q1010